createdAt,value
2018-02-15T00:00:51.338Z,3.45
2018-02-15T00:01:45.174Z,3.42
2018-02-15T00:02:41.057Z,3.49
2018-02-15T00:04:33.919Z,3.54
2018-02-15T00:05:15.183Z,3.49
2018-02-15T00:05:55.551Z,3.54
2018-02-15T00:06:35.992Z,3.54
2018-02-15T00:07:16.326Z,3.54
2018-02-15T00:07:56.789Z,3.5
2018-02-15T00:08:37.116Z,3.52
2018-02-15T00:09:17.507Z,3.57
2018-02-15T00:09:57.941Z,3.59
2018-02-15T00:10:38.320Z,3.57
2018-02-15T00:11:18.775Z,3.6
2018-02-15T00:11:59.143Z,3.6
2018-02-15T00:12:39.740Z,3.64
2018-02-15T00:13:20.136Z,3.67
2018-02-15T00:14:00.492Z,3.77
2018-02-15T00:14:41.877Z,3.82
2018-02-15T00:15:22.244Z,3.86
2018-02-15T00:16:02.657Z,3.9
2018-02-15T00:16:43.024Z,3.93
2018-02-15T00:18:22.217Z,3.82
2018-02-15T00:19:02.717Z,3.82
2018-02-15T00:19:43.115Z,3.84
2018-02-15T00:20:23.498Z,3.84
2018-02-15T00:21:03.890Z,3.78
2018-02-15T00:21:44.306Z,3.78
2018-02-15T00:22:24.700Z,3.71
2018-02-15T00:23:05.153Z,3.59
2018-02-15T00:23:45.504Z,3.64
2018-02-15T00:24:25.902Z,3.8
2018-02-15T00:25:06.246Z,3.8
2018-02-15T00:25:46.630Z,3.75
2018-02-15T00:26:26.972Z,3.74
2018-02-15T00:27:07.378Z,3.7
2018-02-15T00:27:47.912Z,3.67
2018-02-15T00:28:28.175Z,3.64
2018-02-15T00:29:08.572Z,3.59
2018-02-15T00:29:48.968Z,3.68
2018-02-15T00:30:29.529Z,3.68
2018-02-15T00:31:09.937Z,3.62
2018-02-15T00:31:50.327Z,3.77
2018-02-15T00:32:30.749Z,3.68
2018-02-15T00:33:11.244Z,3.8
2018-02-15T00:33:51.645Z,3.7
2018-02-15T00:34:32.067Z,3.63
2018-02-15T00:35:12.456Z,3.6
2018-02-15T00:35:52.879Z,3.74
2018-02-15T00:36:33.241Z,3.8
2018-02-15T00:37:13.607Z,3.81
2018-02-15T00:37:54.040Z,3.78
2018-02-15T00:38:34.371Z,3.86
2018-02-15T00:39:14.808Z,4
2018-02-15T00:39:55.187Z,3.92
2018-02-15T00:40:35.676Z,3.93
2018-02-15T00:41:16.078Z,4.07
2018-02-15T00:41:56.461Z,4.08
2018-02-15T00:42:36.837Z,4.1
2018-02-15T00:43:17.260Z,4.16
2018-02-15T00:43:57.639Z,4.14
2018-02-15T00:44:38.017Z,4.11
2018-02-15T00:45:18.548Z,4.06
2018-02-15T00:45:58.970Z,4.02
2018-02-15T00:46:39.353Z,4.02
2018-02-15T00:47:19.694Z,4.04
2018-02-15T00:48:00.093Z,4
2018-02-15T00:48:40.596Z,3.96
2018-02-15T00:49:20.865Z,3.95
2018-02-15T00:50:01.287Z,3.93
2018-02-15T00:50:41.645Z,3.84
2018-02-15T00:51:22.042Z,3.78
2018-02-15T00:52:02.433Z,3.81
2018-02-15T00:52:42.859Z,3.75
2018-02-15T00:53:23.376Z,3.86
2018-02-15T00:54:03.778Z,3.84
2018-02-15T00:54:44.186Z,3.89
2018-02-15T00:55:24.511Z,3.96
2018-02-15T00:56:04.925Z,3.93
2018-02-15T00:56:45.500Z,3.86
2018-02-15T00:57:25.919Z,3.89
2018-02-15T00:58:06.373Z,3.8
2018-02-15T00:58:46.799Z,3.84
2018-02-15T00:59:27.342Z,3.82
2018-02-15T01:00:07.725Z,3.81
2018-02-15T01:00:48.145Z,3.75
2018-02-15T01:01:28.530Z,3.82
2018-02-15T01:02:08.909Z,3.78
2018-02-15T01:02:49.550Z,3.86
2018-02-15T01:03:30.017Z,3.75
2018-02-15T01:04:10.598Z,3.82
2018-02-15T01:04:50.965Z,3.81
2018-02-15T01:05:31.316Z,3.84
2018-02-15T01:06:11.746Z,3.78
2018-02-15T01:06:52.154Z,3.78
2018-02-15T01:07:32.550Z,3.82
2018-02-15T01:08:12.980Z,3.84
2018-02-15T01:08:53.354Z,3.77
2018-02-15T01:09:33.698Z,3.72
2018-02-15T01:10:14.099Z,3.7
2018-02-15T01:10:54.504Z,3.84
2018-02-15T01:16:04.793Z,3.86
2018-02-15T01:16:57.814Z,3.84
2018-02-15T01:17:50.551Z,3.8
2018-02-15T01:18:44.436Z,3.7
2018-02-15T01:19:36.578Z,3.7
2018-02-15T01:20:29.109Z,3.72
2018-02-15T01:21:21.197Z,3.8
2018-02-15T01:22:07.788Z,3.8
2018-02-15T01:22:48.965Z,3.8
2018-02-15T01:23:29.600Z,3.82
2018-02-15T01:24:11.945Z,3.82
2018-02-15T01:24:54.035Z,3.8
2018-02-15T01:25:35.202Z,3.7
2018-02-15T01:26:17.088Z,3.72
2018-02-15T01:26:59.938Z,3.6
2018-02-15T01:27:40.477Z,3.78
2018-02-15T01:28:26.600Z,3.78
2018-02-15T01:29:10.805Z,3.78
2018-02-15T01:29:51.651Z,3.72
2018-02-15T01:30:32.856Z,3.75
2018-02-15T01:31:14.974Z,3.75
2018-02-15T01:31:56.105Z,3.74
2018-02-15T01:32:36.479Z,3.77
2018-02-15T01:33:20.997Z,3.82
2018-02-15T01:34:02.303Z,3.82
2018-02-15T01:34:42.819Z,3.82
2018-02-15T01:35:23.944Z,3.81
2018-02-15T01:36:05.386Z,3.81
2018-02-15T01:36:46.346Z,3.75
2018-02-15T01:37:28.468Z,3.77
2018-02-15T01:38:08.827Z,3.72
2018-02-15T01:38:52.364Z,3.75
2018-02-15T01:39:32.732Z,3.75
2018-02-15T01:40:14.308Z,3.57
2018-02-15T01:40:56.627Z,3.63
2018-02-15T01:41:37.050Z,3.68
2018-02-15T01:42:17.255Z,3.72
2018-02-15T01:43:04.889Z,3.77
2018-02-15T01:45:13.253Z,3.81
2018-02-15T01:45:54.213Z,3.74
2018-02-15T01:46:33.786Z,3.72
2018-02-15T01:47:14.336Z,3.74
2018-02-15T01:47:54.860Z,3.68
2018-02-15T01:48:37.256Z,3.62
2018-02-15T01:49:17.771Z,3.63
2018-02-15T01:49:58.201Z,3.71
2018-02-15T01:50:38.571Z,3.56
2018-02-15T01:51:19.001Z,3.56
2018-02-15T01:51:59.371Z,3.68
2018-02-15T01:52:39.799Z,3.6
2018-02-15T01:53:20.339Z,3.6
2018-02-15T01:54:01.041Z,3.71
2018-02-15T01:54:43.853Z,3.74
2018-02-15T01:55:24.312Z,3.74
2018-02-15T01:56:05.323Z,3.78
2018-02-15T01:56:46.421Z,3.75
2018-02-15T01:57:27.489Z,3.75
2018-02-15T01:58:07.900Z,3.72
2018-02-15T01:58:48.302Z,3.78
2018-02-15T01:59:29.712Z,3.75
2018-02-15T02:00:10.060Z,3.78
2018-02-15T02:00:50.443Z,3.78
2018-02-15T02:01:30.840Z,3.78
2018-02-15T02:02:11.914Z,3.8
2018-02-15T02:02:52.175Z,3.84
2018-02-15T02:03:32.711Z,3.84
2018-02-15T02:04:13.165Z,3.9
2018-02-15T02:04:53.599Z,3.82
2018-02-15T02:05:33.929Z,3.78
2018-02-15T02:06:14.439Z,3.82
2018-02-15T02:06:54.894Z,3.8
2018-02-15T02:07:35.327Z,3.8
2018-02-15T02:08:15.747Z,3.75
2018-02-15T02:10:22.369Z,3.9
2018-02-15T02:11:07.420Z,3.89
2018-02-15T02:11:48.205Z,3.9
2018-02-15T02:12:28.770Z,3.89
2018-02-15T02:13:09.262Z,3.84
2018-02-15T02:13:50.331Z,3.86
2018-02-15T02:14:30.169Z,3.89
2018-02-15T02:15:10.988Z,3.81
2018-02-15T02:15:51.016Z,3.84
2018-02-15T02:16:32.170Z,3.77
2018-02-15T02:17:14.000Z,3.78
2018-02-15T02:17:54.817Z,3.86
2018-02-15T02:18:35.314Z,3.81
2018-02-15T02:19:18.658Z,3.99
2018-02-15T02:19:59.114Z,3.92
2018-02-15T02:20:39.669Z,3.92
2018-02-15T02:21:20.218Z,3.9
2018-02-15T02:22:01.146Z,3.89
2018-02-15T02:22:42.451Z,3.92
2018-02-15T02:23:23.623Z,3.8
2018-02-15T02:24:04.092Z,3.82
2018-02-15T02:24:44.473Z,3.84
2018-02-15T02:25:25.579Z,3.84
2018-02-15T02:26:06.122Z,3.82
2018-02-15T02:26:47.254Z,3.82
2018-02-15T02:27:27.701Z,3.82
2018-02-15T02:28:09.021Z,3.78
2018-02-15T02:28:49.646Z,3.75
2018-02-15T02:29:30.496Z,3.8
2018-02-15T02:30:10.883Z,3.93
2018-02-15T02:30:51.728Z,3.89
2018-02-15T02:31:32.387Z,3.95
2018-02-15T02:32:12.836Z,3.84
2018-02-15T02:32:53.744Z,3.82
2018-02-15T02:33:34.226Z,3.88
2018-02-15T02:34:14.739Z,3.84
2018-02-15T02:34:55.403Z,3.92
2018-02-15T02:35:35.955Z,3.86
2018-02-15T02:36:16.865Z,3.9
2018-02-15T02:36:57.762Z,3.81
2018-02-15T02:37:38.204Z,3.8
2018-02-15T02:38:18.714Z,3.82
2018-02-15T02:38:59.330Z,3.86
2018-02-15T02:39:39.674Z,3.8
2018-02-15T02:40:20.509Z,3.82
2018-02-15T02:41:00.993Z,3.82
2018-02-15T02:41:41.667Z,3.81
2018-02-15T02:42:22.183Z,3.8
2018-02-15T02:43:02.846Z,3.84
2018-02-15T02:43:43.897Z,3.84
2018-02-15T02:44:24.904Z,3.86
2018-02-15T02:45:04.836Z,3.93
2018-02-15T02:45:45.246Z,3.84
2018-02-15T02:46:25.766Z,3.88
2018-02-15T02:47:06.833Z,3.92
2018-02-15T02:47:47.494Z,3.92
2018-02-15T02:48:28.239Z,3.96
2018-02-15T02:49:09.122Z,3.89
2018-02-15T02:49:50.050Z,3.86
2018-02-15T02:50:30.500Z,3.92
2018-02-15T02:51:11.706Z,3.84
2018-02-15T02:51:51.868Z,3.95
2018-02-15T02:52:32.531Z,3.89
2018-02-15T02:53:14.620Z,3.88
2018-02-15T02:53:54.871Z,3.98
2018-02-15T02:54:35.321Z,3.95
2018-02-15T02:55:16.224Z,4.02
2018-02-15T02:55:57.226Z,3.99
2018-02-15T02:56:37.652Z,3.98
2018-02-15T02:57:18.610Z,4
2018-02-15T02:57:59.000Z,3.98
2018-02-15T02:58:39.567Z,4
2018-02-15T02:59:20.000Z,4.02
2018-02-15T03:00:00.928Z,4.08
2018-02-15T03:00:41.537Z,3.98
2018-02-15T03:01:22.294Z,4
2018-02-15T03:02:04.405Z,3.98
2018-02-15T03:02:44.711Z,4.04
2018-02-15T03:03:25.113Z,4.02
2018-02-15T03:04:05.816Z,3.99
2018-02-15T03:04:46.158Z,4
2018-02-15T03:05:27.735Z,4.02
2018-02-15T03:06:09.665Z,3.95
2018-02-15T03:06:50.168Z,3.95
2018-02-15T03:10:49.082Z,3.81
2018-02-15T03:11:36.803Z,3.74
2018-02-15T03:12:17.863Z,3.59
2018-02-15T03:12:58.348Z,3.63
2018-02-15T03:13:39.147Z,3.62
2018-02-15T03:14:19.755Z,3.67
2018-02-15T03:15:00.660Z,3.56
2018-02-15T03:15:41.233Z,3.59
2018-02-15T03:16:22.409Z,3.57
2018-02-15T03:17:02.961Z,3.44
2018-02-15T03:17:43.427Z,3.5
2018-02-15T03:18:24.353Z,3.37
2018-02-15T03:19:04.769Z,3.39
2018-02-15T03:19:45.146Z,3.35
2018-02-15T03:20:26.374Z,3.33
2018-02-15T03:21:07.087Z,3.31
2018-02-15T03:21:48.090Z,3.25
2018-02-15T03:22:28.754Z,3.1
2018-02-15T03:23:09.261Z,3.08
2018-02-15T03:23:50.197Z,3.05
2018-02-15T03:24:30.722Z,2.95
2018-02-15T03:25:11.499Z,2.99
2018-02-15T03:25:53.979Z,2.99
2018-02-15T03:26:34.381Z,2.87
2018-02-15T03:27:15.068Z,2.89
2018-02-15T03:27:55.690Z,2.84
2018-02-15T03:28:36.509Z,2.77
2018-02-15T03:29:17.169Z,2.74
2018-02-15T03:29:57.757Z,2.76
2018-02-15T03:30:38.221Z,2.66
2018-02-15T03:31:18.837Z,2.69
2018-02-15T03:32:02.055Z,2.58
2018-02-15T03:32:44.641Z,2.61
2018-02-15T03:33:25.497Z,2.53
2018-02-15T03:34:06.894Z,2.45
2018-02-15T03:34:46.616Z,2.43
2018-02-15T03:35:27.558Z,2.43
2018-02-15T03:36:09.272Z,2.4
2018-02-15T03:36:50.360Z,2.36
2018-02-15T03:37:31.152Z,2.33
2018-02-15T03:38:11.868Z,2.36
2018-02-15T03:38:52.503Z,2.19
2018-02-15T03:39:32.973Z,2.15
2018-02-15T03:40:14.274Z,2.12
2018-02-15T03:40:55.848Z,2.15
2018-02-15T03:41:39.269Z,2.05
2018-02-15T03:42:20.597Z,2.04
2018-02-15T03:43:01.604Z,2.02
2018-02-15T03:43:43.984Z,2.04
2018-02-15T03:44:25.443Z,2.07
2018-02-15T03:45:06.438Z,2.04
2018-02-15T03:45:48.106Z,2.01
2018-02-15T03:46:29.358Z,1.92
2018-02-15T03:47:11.005Z,1.86
2018-02-15T03:47:51.495Z,1.9
2018-02-15T03:48:32.557Z,1.88
2018-02-15T03:49:14.793Z,1.89
2018-02-15T03:49:55.586Z,1.85
2018-02-15T03:50:36.652Z,1.79
2018-02-15T03:51:19.063Z,1.82
2018-02-15T03:51:59.967Z,1.81
2018-02-15T03:52:41.136Z,1.75
2018-02-15T03:53:21.822Z,1.7
2018-02-15T03:54:06.258Z,1.61
2018-02-15T03:54:54.782Z,1.63
2018-02-15T03:55:36.797Z,1.65
2018-02-15T03:57:36.451Z,1.67
2018-02-15T03:58:20.067Z,1.56
2018-02-15T03:59:01.048Z,1.5
2018-02-15T03:59:40.613Z,1.67
2018-02-15T04:00:21.044Z,1.65
2018-02-15T04:01:01.721Z,1.65
2018-02-15T04:01:42.264Z,1.7
2018-02-15T04:02:22.714Z,1.79
2018-02-15T04:03:05.192Z,1.88
2018-02-15T04:03:45.572Z,1.86
2018-02-15T04:04:26.063Z,1.88
2018-02-15T04:05:06.556Z,1.83
2018-02-15T04:47:31.667Z,1.11
2018-02-15T04:48:14.762Z,1.08
2018-02-15T04:48:55.230Z,1.14
2018-02-15T04:49:35.692Z,1.18
2018-02-15T04:50:16.376Z,1.17
2018-02-15T04:50:57.005Z,1.24
2018-02-15T04:52:35.827Z,1.18
2018-02-15T04:53:19.174Z,1.13
2018-02-15T04:53:59.988Z,1.24
2018-02-15T04:54:41.069Z,1.14
2018-02-15T04:56:28.656Z,1.24
2018-02-15T04:57:10.195Z,1.21
2018-02-15T04:57:50.285Z,1.31
2018-02-15T04:58:31.176Z,1.29
2018-02-15T04:59:13.031Z,1.28
2018-02-15T04:59:53.380Z,1.31
2018-02-15T05:00:34.227Z,1.39
2018-02-15T05:01:15.083Z,1.34
2018-02-15T05:01:55.729Z,1.34
2018-02-15T05:02:36.633Z,1.31
2018-02-15T05:03:16.629Z,1.39
2018-02-15T05:03:57.331Z,1.56
2018-02-15T05:04:38.022Z,1.54
2018-02-15T05:05:18.678Z,1.39
2018-02-15T05:05:59.184Z,1.52
2018-02-15T05:06:39.670Z,1.43
2018-02-15T05:07:20.280Z,1.44
2018-02-15T05:08:01.395Z,1.42
2018-02-15T05:08:41.584Z,1.35
2018-02-15T05:09:22.055Z,1.43
2018-02-15T05:10:02.854Z,1.56
2018-02-15T05:10:43.361Z,1.57
2018-02-15T05:12:23.660Z,1.44
2018-02-15T05:13:06.598Z,1.39
2018-02-15T05:13:47.029Z,1.46
2018-02-15T05:14:27.748Z,1.46
2018-02-15T05:15:07.902Z,1.42
2018-02-15T05:15:48.490Z,1.32
2018-02-15T05:16:29.565Z,1.49
2018-02-15T05:17:10.295Z,1.57
2018-02-15T05:17:50.808Z,1.5
2018-02-15T05:18:31.492Z,1.54
2018-02-15T05:19:12.543Z,1.54
2018-02-15T05:19:53.064Z,1.63
2018-02-15T05:20:34.093Z,1.63
2018-02-15T05:21:14.458Z,1.63
2018-02-15T05:21:55.074Z,1.63
2018-02-15T05:22:35.784Z,1.7
2018-02-15T05:23:16.233Z,1.64
2018-02-15T05:23:56.788Z,1.52
2018-02-15T05:24:38.195Z,1.61
2018-02-15T05:25:19.002Z,1.65
2018-02-15T05:25:59.687Z,1.77
2018-02-15T05:26:41.244Z,1.68
2018-02-15T05:27:22.210Z,1.64
2018-02-15T05:28:03.241Z,1.64
2018-02-15T05:28:43.529Z,1.6
2018-02-15T05:29:24.523Z,1.52
2018-02-15T05:30:04.903Z,1.39
2018-02-15T05:30:45.590Z,1.43
2018-02-15T05:31:26.503Z,1.52
2018-02-15T05:32:06.619Z,1.52
2018-02-15T05:32:47.638Z,1.56
2018-02-15T05:33:28.314Z,1.53
2018-02-15T05:34:09.112Z,1.68
2018-02-15T05:34:50.076Z,1.65
2018-02-15T05:35:30.872Z,1.63
2018-02-15T05:36:11.732Z,1.65
2018-02-15T05:36:52.170Z,1.65
2018-02-15T05:37:32.678Z,1.52
2018-02-15T05:38:13.606Z,1.54
2018-02-15T05:38:54.255Z,1.47
2018-02-15T05:39:35.085Z,1.6
2018-02-15T05:40:15.549Z,1.53
2018-02-15T05:40:56.518Z,1.53
2018-02-15T05:41:36.961Z,1.47
2018-02-15T05:42:17.787Z,1.53
2018-02-15T05:42:58.313Z,1.57
2018-02-15T05:43:38.830Z,1.56
2018-02-15T05:44:21.924Z,1.54
2018-02-15T05:45:02.662Z,1.43
2018-02-15T05:45:43.192Z,1.43
2018-02-15T05:46:23.529Z,1.52
2018-02-15T05:47:04.231Z,1.52
2018-02-15T05:47:45.198Z,1.52
2018-02-15T05:48:25.529Z,1.52
2018-02-15T05:49:06.028Z,1.44
2018-02-15T05:49:46.802Z,1.47
2018-02-15T05:50:27.245Z,1.39
2018-02-15T05:51:10.228Z,1.54
2018-02-15T05:51:50.705Z,1.52
2018-02-15T05:55:27.706Z,1.56
2018-02-15T05:56:08.804Z,1.54
2018-02-15T05:56:49.054Z,1.6
2018-02-15T05:57:29.659Z,1.47
2018-02-15T05:58:10.104Z,1.49
2018-02-15T05:58:51.039Z,1.38
2018-02-15T05:59:32.216Z,1.52
2018-02-15T06:01:29.987Z,1.54
2018-02-15T06:02:12.181Z,1.53
2018-02-15T06:02:52.782Z,1.47
2018-02-15T06:03:33.524Z,1.54
2018-02-15T06:04:13.796Z,1.57
2018-02-15T06:04:54.764Z,1.57
2018-02-15T06:05:35.778Z,1.56
2018-02-15T06:06:16.588Z,1.54
2018-02-15T06:06:57.161Z,1.49
2018-02-15T06:07:38.679Z,1.47
2018-02-15T06:08:19.691Z,1.49
2018-02-15T06:09:01.317Z,1.39
2018-02-15T06:09:41.981Z,1.39
2018-02-15T06:10:23.140Z,1.56
2018-02-15T06:11:03.952Z,1.56
2018-02-15T06:11:45.559Z,1.54
2018-02-15T06:12:25.805Z,1.57
2018-02-15T06:13:06.491Z,1.5
2018-02-15T06:13:47.171Z,1.53
2018-02-15T06:14:27.918Z,1.54
2018-02-15T06:15:08.455Z,1.52
2018-02-15T06:15:49.032Z,1.5
2018-02-15T06:16:29.339Z,1.57
2018-02-15T06:17:10.348Z,1.52
2018-02-15T06:17:50.379Z,1.56
2018-02-15T06:18:31.018Z,1.5
2018-02-15T06:20:08.344Z,1.54
2018-02-15T06:20:52.668Z,1.49
2018-02-15T06:21:32.417Z,1.44
2018-02-15T06:22:13.296Z,1.49
2018-02-15T06:22:53.809Z,1.43
2018-02-15T06:23:34.063Z,1.54
2018-02-15T06:24:14.839Z,1.6
2018-02-15T06:24:55.317Z,1.67
2018-02-15T06:25:36.598Z,1.7
2018-02-15T06:26:17.580Z,1.75
2018-02-15T06:26:57.864Z,1.61
2018-02-15T06:27:38.638Z,1.74
2018-02-15T06:28:19.127Z,1.71
2018-02-15T06:28:59.500Z,1.65
2018-02-15T06:29:39.980Z,1.67
2018-02-15T06:30:20.410Z,1.61
2018-02-15T06:31:00.864Z,1.61
2018-02-15T06:31:42.140Z,1.61
2018-02-15T06:32:22.817Z,1.65
2018-02-15T06:33:03.299Z,1.65
2018-02-15T06:33:43.714Z,1.6
2018-02-15T06:34:24.120Z,1.67
2018-02-15T06:35:04.658Z,1.6
2018-02-15T06:35:45.083Z,1.65
2018-02-15T06:36:25.783Z,1.68
2018-02-15T06:37:06.184Z,1.63
2018-02-15T06:37:47.290Z,1.64
2018-02-15T06:38:27.926Z,1.65
2018-02-15T06:39:08.323Z,1.63
2018-02-15T06:39:50.139Z,1.5
2018-02-15T06:40:30.815Z,1.53
2018-02-15T06:41:11.497Z,1.52
2018-02-15T06:41:52.045Z,1.61
2018-02-15T06:42:33.070Z,1.52
2018-02-15T06:43:14.219Z,1.49
2018-02-15T06:43:54.313Z,1.52
2018-02-15T06:44:35.266Z,1.54
2018-02-15T06:45:16.793Z,1.61
2018-02-15T06:45:57.184Z,1.6
2018-02-15T06:46:38.228Z,1.6
2018-02-15T06:47:18.890Z,1.47
2018-02-15T06:47:59.204Z,1.54
2018-02-15T06:48:39.645Z,1.53
2018-02-15T06:49:20.304Z,1.53
2018-02-15T06:50:01.624Z,1.53
2018-02-15T06:50:42.301Z,1.57
2018-02-15T06:51:22.916Z,1.53
2018-02-15T06:52:03.278Z,1.52
2018-02-15T06:52:43.743Z,1.56
2018-02-15T06:53:25.154Z,1.54
2018-02-15T06:54:05.123Z,1.5
2018-02-15T06:54:45.544Z,1.54
2018-02-15T06:55:26.263Z,1.52
2018-02-15T06:56:06.494Z,1.49
2018-02-15T06:56:47.021Z,1.53
2018-02-15T06:57:28.159Z,1.53
2018-02-15T06:58:08.676Z,1.49
2018-02-15T06:58:49.192Z,1.53
2018-02-15T06:59:29.800Z,1.49
2018-02-15T07:00:10.483Z,1.63
2018-02-15T07:00:50.850Z,1.52
2018-02-15T07:01:31.859Z,1.63
2018-02-15T07:02:12.286Z,1.63
2018-02-15T07:02:52.819Z,1.67
2018-02-15T07:03:33.390Z,1.52
2018-02-15T07:05:31.414Z,1.57
2018-02-15T07:06:15.658Z,1.54
2018-02-15T07:06:56.555Z,1.53
2018-02-15T07:07:36.612Z,1.53
2018-02-15T07:08:17.042Z,1.53
2018-02-15T07:08:57.600Z,1.53
2018-02-15T07:09:38.416Z,1.54
2018-02-15T07:10:18.788Z,1.6
2018-02-15T07:10:59.290Z,1.6
2018-02-15T07:11:39.778Z,1.67
2018-02-15T07:12:21.563Z,1.72
2018-02-15T07:13:01.920Z,1.74
2018-02-15T07:13:42.323Z,1.67
2018-02-15T07:14:22.841Z,1.7
2018-02-15T07:15:03.701Z,1.74
2018-02-15T07:15:44.303Z,1.71
2018-02-15T07:16:24.694Z,1.7
2018-02-15T07:17:05.545Z,1.71
2018-02-15T07:17:45.956Z,1.74
2018-02-15T07:18:26.580Z,1.79
2018-02-15T07:19:07.026Z,1.88
2018-02-15T07:19:48.370Z,1.83
2018-02-15T07:20:29.205Z,1.88
2018-02-15T07:21:09.749Z,1.88
2018-02-15T07:21:50.128Z,1.77
2018-02-15T07:22:30.862Z,1.83
2018-02-15T07:23:12.162Z,1.89
2018-02-15T07:23:52.886Z,1.82
2018-02-15T07:24:33.370Z,1.89
2018-02-15T07:25:14.025Z,1.92
2018-02-15T07:25:54.621Z,1.93
2018-02-15T07:26:35.201Z,1.95
2018-02-15T07:27:16.020Z,2.11
2018-02-15T07:27:56.387Z,2.2
2018-02-15T07:28:38.191Z,2.23
2018-02-15T07:29:17.823Z,2.22
2018-02-15T07:29:58.528Z,2.37
2018-02-15T07:30:39.426Z,2.4
2018-02-15T07:31:19.855Z,2.3
2018-02-15T07:32:01.922Z,2.36
2018-02-15T07:32:42.624Z,2.3
2018-02-15T07:33:23.294Z,2.27
2018-02-15T07:34:03.736Z,2.25
2018-02-15T07:34:45.317Z,2.22
2018-02-15T07:35:27.717Z,2.19
2018-02-15T07:36:07.730Z,2.2
2018-02-15T07:36:48.167Z,2.19
2018-02-15T07:37:28.656Z,2.26
2018-02-15T07:38:10.671Z,2.36
2018-02-15T07:38:50.968Z,2.23
2018-02-15T07:39:33.613Z,2.3
2018-02-15T07:40:13.528Z,2.3
2018-02-15T07:40:54.382Z,2.19
2018-02-15T07:41:35.354Z,2.23
2018-02-15T07:42:16.562Z,2.29
2018-02-15T07:42:57.290Z,2.25
2018-02-15T07:43:37.994Z,2.41
2018-02-15T07:44:20.221Z,2.53
2018-02-15T07:45:01.126Z,2.56
2018-02-15T07:45:41.640Z,2.47
2018-02-15T07:46:21.923Z,2.4
2018-02-15T07:47:02.404Z,2.45
2018-02-15T07:47:42.911Z,2.48
2018-02-15T07:48:23.699Z,2.56
2018-02-15T07:49:04.240Z,2.51
2018-02-15T07:49:44.821Z,2.51
2018-02-15T07:50:26.097Z,2.56
2018-02-15T07:51:06.594Z,2.5
2018-02-15T07:51:47.429Z,2.47
2018-02-15T07:52:27.602Z,2.53
2018-02-15T07:53:08.196Z,2.45
2018-02-15T07:53:48.576Z,2.56
2018-02-15T07:54:29.884Z,2.5
2018-02-15T07:55:11.033Z,2.44
2018-02-15T07:55:51.615Z,2.51
2018-02-15T07:56:32.539Z,2.5
2018-02-15T07:57:13.015Z,2.44
2018-02-15T07:59:07.516Z,2.63
2018-02-15T07:59:50.999Z,2.5
2018-02-15T08:00:31.138Z,2.62
2018-02-15T08:01:11.941Z,2.68
2018-02-15T08:01:52.791Z,2.65
2018-02-15T08:02:33.776Z,2.63
2018-02-15T08:03:17.937Z,2.69
2018-02-15T08:04:01.153Z,2.61
2018-02-15T08:04:41.673Z,2.63
2018-02-15T08:05:21.566Z,2.77
2018-02-15T08:06:02.096Z,2.63
2018-02-15T08:06:42.681Z,2.61
2018-02-15T08:07:25.601Z,2.65
2018-02-15T08:08:06.029Z,2.66
2018-02-15T08:08:46.805Z,2.66
2018-02-15T08:09:27.321Z,2.62
2018-02-15T08:10:08.982Z,2.66
2018-02-15T08:10:49.874Z,2.63
2018-02-15T08:11:30.512Z,2.66
2018-02-15T08:12:14.233Z,2.68
2018-02-15T08:12:55.825Z,2.51
2018-02-15T08:14:55.831Z,2.47
2018-02-15T08:15:37.400Z,2.58
2018-02-15T08:16:17.309Z,2.51
2018-02-15T08:16:58.092Z,2.48
2018-02-15T08:18:56.614Z,2.56
2018-02-15T08:19:42.523Z,2.65
2018-02-15T08:20:23.373Z,2.63
2018-02-15T08:21:07.078Z,2.62
2018-02-15T08:21:47.450Z,2.68
2018-02-15T08:22:28.203Z,2.76
2018-02-15T08:23:08.962Z,2.73
2018-02-15T08:23:50.345Z,2.68
2018-02-15T08:24:31.205Z,2.71
2018-02-15T08:25:11.740Z,2.76
2018-02-15T08:25:53.838Z,2.71
2018-02-15T08:26:34.631Z,2.73
2018-02-15T08:27:17.074Z,2.68
2018-02-15T08:27:58.209Z,2.62
2018-02-15T08:28:39.284Z,2.66
2018-02-15T08:29:19.849Z,2.66
2018-02-15T08:30:00.211Z,2.63
2018-02-15T08:30:40.769Z,2.66
2018-02-15T08:31:22.680Z,2.68
2018-02-15T08:32:03.637Z,2.68
2018-02-15T08:32:44.227Z,2.76
2018-02-15T08:33:26.025Z,2.65
2018-02-15T08:34:07.007Z,2.63
2018-02-15T08:34:47.443Z,2.66
2018-02-15T08:35:28.700Z,2.65
2018-02-15T08:36:09.212Z,2.65
2018-02-15T08:36:52.780Z,2.66
2018-02-15T08:38:44.894Z,2.74
2018-02-15T08:39:28.159Z,2.71
2018-02-15T08:40:09.368Z,2.73
2018-02-15T08:40:51.075Z,2.74
2018-02-15T08:41:32.575Z,2.63
2018-02-15T08:42:13.748Z,2.8
2018-02-15T08:42:56.206Z,2.68
2018-02-15T08:43:39.340Z,2.76
2018-02-15T08:44:20.235Z,2.77
2018-02-15T08:45:01.026Z,2.61
2018-02-15T08:45:41.545Z,2.62
2018-02-15T08:46:22.612Z,2.69
2018-02-15T08:47:02.939Z,2.63
2018-02-15T08:47:44.165Z,2.73
2018-02-15T08:48:26.892Z,2.63
2018-02-15T08:49:09.513Z,2.65
2018-02-15T08:49:52.082Z,2.61
2018-02-15T08:50:32.184Z,2.65
2018-02-15T08:51:13.048Z,2.71
2018-02-15T08:51:54.433Z,2.65
2018-02-15T08:52:34.538Z,2.63
2018-02-15T08:53:16.512Z,2.62
2018-02-15T08:53:57.430Z,2.62
2018-02-15T08:54:38.246Z,2.63
2018-02-15T08:55:19.667Z,2.66
2018-02-15T08:56:00.411Z,2.65
2018-02-15T08:56:40.949Z,2.73
2018-02-15T08:57:21.430Z,2.63
2018-02-15T08:58:02.796Z,2.63
2018-02-15T08:58:44.375Z,2.66
2018-02-15T08:59:26.163Z,2.62
2018-02-15T10:44:09.363Z,3.77
2018-02-15T10:44:58.563Z,3.8
2018-02-15T10:45:46.267Z,3.86
2018-02-15T10:51:50.819Z,3.88
2018-02-15T10:52:35.782Z,3.95
2018-02-15T10:53:17.989Z,4
2018-02-15T10:53:58.574Z,4.02
2018-02-15T10:54:39.075Z,4.07
2018-02-15T10:55:19.588Z,4.1
2018-02-15T10:55:59.877Z,4.1
2018-02-15T10:56:40.306Z,4.1
2018-02-15T10:57:23.612Z,4.14
2018-02-15T10:58:07.145Z,4.11
2018-02-15T10:58:50.190Z,4.16
2018-02-15T10:59:31.791Z,4.13
2018-02-15T11:00:12.376Z,4.21
2018-02-15T11:00:54.004Z,4.21
2018-02-15T11:01:35.470Z,4.25
2018-02-15T11:02:16.503Z,4.29
2018-02-15T11:02:57.564Z,4.32
2018-02-15T11:03:42.550Z,4.46
2018-02-15T11:04:23.602Z,4.47
2018-02-15T11:05:04.135Z,4.47
2018-02-15T11:05:47.419Z,4.44
2018-02-15T11:06:28.805Z,4.39
2018-02-15T11:07:08.954Z,4.32
2018-02-15T11:07:49.561Z,4.29
2018-02-15T11:08:30.459Z,4.32
2018-02-15T11:09:11.024Z,4.38
2018-02-15T11:09:52.561Z,4.39
2018-02-15T11:10:38.068Z,4.35
2018-02-15T11:11:21.037Z,4.54
2018-02-15T11:12:02.119Z,4.51
2018-02-15T11:12:43.017Z,4.61
2018-02-15T11:13:23.660Z,4.62
2018-02-15T11:14:05.209Z,4.65
2018-02-15T11:14:51.334Z,4.54
2018-02-15T11:15:31.845Z,4.65
2018-02-15T11:16:12.905Z,4.59
2018-02-15T11:16:53.992Z,4.65
2018-02-15T11:17:35.590Z,4.59
2018-02-15T11:18:16.074Z,4.62
2018-02-15T11:18:56.373Z,4.68
2018-02-15T11:19:38.774Z,4.67
2018-02-15T11:20:19.428Z,4.77
2018-02-15T11:21:00.023Z,4.72
2018-02-15T11:21:41.785Z,4.77
2018-02-15T11:22:21.934Z,4.79
2018-02-15T11:23:02.805Z,4.75
2018-02-15T11:23:43.158Z,4.83
2018-02-15T11:25:43.122Z,4.93
2018-02-15T11:26:23.250Z,4.9
2018-02-15T11:27:03.977Z,4.91
2018-02-15T11:27:44.247Z,4.93
2018-02-15T11:28:25.640Z,4.94
2018-02-15T11:29:06.310Z,4.93
2018-02-15T11:29:47.502Z,5.02
2018-02-15T11:30:27.745Z,5.08
2018-02-15T11:31:08.193Z,5.06
2018-02-15T11:31:49.513Z,5.12
2018-02-15T11:32:30.754Z,5.19
2018-02-15T11:33:10.601Z,5.14
2018-02-15T11:33:51.087Z,5.14
2018-02-15T11:34:31.760Z,5.2
2018-02-15T11:35:13.380Z,5.26
2018-02-15T11:35:53.662Z,5.32
2018-02-15T11:36:34.245Z,5.3
2018-02-15T11:37:14.819Z,5.26
2018-02-15T11:37:55.862Z,5.32
2018-02-15T11:38:37.717Z,5.41
2018-02-15T11:39:18.653Z,5.48
2018-02-15T11:39:59.857Z,5.47
2018-02-15T11:40:41.373Z,5.45
2018-02-15T11:41:22.052Z,5.44
2018-02-15T11:42:04.632Z,5.48
2018-02-15T11:42:44.881Z,5.62
2018-02-15T11:43:25.933Z,5.66
2018-02-15T11:44:06.582Z,5.75
2018-02-15T11:44:48.658Z,5.78
2018-02-15T11:45:30.155Z,5.88
2018-02-15T11:46:11.830Z,5.84
2018-02-15T11:46:53.026Z,5.88
2018-02-15T11:47:36.892Z,5.88
2018-02-15T11:49:32.159Z,5.73
2018-02-15T11:50:39.128Z,5.75
2018-02-15T11:52:14.076Z,5.65
2018-02-15T11:52:55.353Z,5.59
2018-02-15T11:53:38.494Z,5.56
2018-02-15T11:54:19.358Z,5.56
2018-02-15T11:54:59.811Z,5.62
2018-02-15T11:55:40.408Z,5.65
2018-02-15T11:56:28.157Z,5.69
2018-02-15T12:00:53.194Z,5.83
2018-02-15T12:01:32.633Z,5.75
2018-02-15T12:02:13.126Z,5.87
2018-02-15T12:02:53.910Z,5.9
2018-02-15T12:03:34.587Z,6.01
2018-02-15T12:04:15.182Z,6.05
2018-02-15T12:04:56.176Z,6.03
2018-02-15T12:05:36.338Z,6.03
2018-02-15T12:06:16.921Z,6.01
2018-02-15T12:06:57.537Z,6.05
2018-02-15T12:07:37.858Z,6.11
2018-02-15T12:08:18.506Z,6.08
2018-02-15T12:08:59.150Z,6.13
2018-02-15T12:09:39.997Z,6.13
2018-02-15T12:10:20.848Z,6.21
2018-02-15T12:11:01.318Z,6.06
2018-02-15T12:11:42.327Z,6.14
2018-02-15T12:12:22.779Z,6.19
2018-02-15T12:13:03.421Z,6.17
2018-02-15T12:13:44.727Z,6.1
2018-02-15T12:14:24.814Z,6.08
2018-02-15T12:15:05.358Z,6.11
2018-02-15T12:15:46.233Z,6.16
2018-02-15T12:16:26.753Z,6.19
2018-02-15T12:17:08.092Z,6.28
2018-02-15T12:17:49.922Z,6.21